sensor_id;sensor_type;location;lat;lon;timestamp;pressure;altitude;pressure_sealevel;temperature;humidity
49835;BME280;35729;52.090;13.162;2023-02-12T00:01:38;102816.66;;;5.90;98.02
49835;BME280;35729;52.090;13.162;2023-02-12T00:04:07;102820.13;;;5.89;98.04
49835;BME280;35729;52.090;13.162;2023-02-12T00:06:37;102823.56;;;5.88;97.94
49835;BME280;35729;52.090;13.162;2023-02-12T00:09:05;102827.84;;;5.86;98.10
49835;BME280;35729;52.090;13.162;2023-02-12T00:11:34;102828.66;;;5.85;98.00
49835;BME280;35729;52.090;13.162;2023-02-12T00:14:02;102834.75;;;5.84;98.12
49835;BME280;35729;52.090;13.162;2023-02-12T00:16:34;102836.38;;;5.80;97.81
49835;BME280;35729;52.090;13.162;2023-02-12T00:19:02;102839.75;;;5.78;97.78
49835;BME280;35729;52.090;13.162;2023-02-12T00:21:30;102842.41;;;5.79;97.82
49835;BME280;35729;52.090;13.162;2023-02-12T00:24:00;102844.13;;;5.79;98.16
49835;BME280;35729;52.090;13.162;2023-02-12T00:26:28;102846.75;;;5.79;98.04
49835;BME280;35729;52.090;13.162;2023-02-12T00:28:57;102846.75;;;5.79;98.01
49835;BME280;35729;52.090;13.162;2023-02-12T00:31:27;102851.88;;;5.77;98.08
49835;BME280;35729;52.090;13.162;2023-02-12T00:33:59;102847.56;;;5.78;97.79
49835;BME280;35729;52.090;13.162;2023-02-12T00:36:29;102846.66;;;5.77;97.87
49835;BME280;35729;52.090;13.162;2023-02-12T00:38:59;102845.78;;;5.77;98.11
49835;BME280;35729;52.090;13.162;2023-02-12T00:41:27;102855.31;;;5.76;97.83
49835;BME280;35729;52.090;13.162;2023-02-12T00:43:56;102854.47;;;5.77;97.97
49835;BME280;35729;52.090;13.162;2023-02-12T00:46:24;102856.22;;;5.77;97.62
49835;BME280;35729;52.090;13.162;2023-02-12T00:48:53;102857.91;;;5.76;97.70
49835;BME280;35729;52.090;13.162;2023-02-12T00:51:30;102859.66;;;5.76;97.56
49835;BME280;35729;52.090;13.162;2023-02-12T00:53:59;102866.59;;;5.75;97.37
49835;BME280;35729;52.090;13.162;2023-02-12T00:56:27;102868.28;;;5.75;97.33
49835;BME280;35729;52.090;13.162;2023-02-12T00:58:56;102863.09;;;5.75;97.52
49835;BME280;35729;52.090;13.162;2023-02-12T01:01:24;102864.00;;;5.75;97.52
49835;BME280;35729;52.090;13.162;2023-02-12T01:03:53;102864.84;;;5.76;97.88
49835;BME280;35729;52.090;13.162;2023-02-12T01:06:21;102871.00;;;5.78;97.88
49835;BME280;35729;52.090;13.162;2023-02-12T01:08:52;102867.50;;;5.77;97.37
49835;BME280;35729;52.090;13.162;2023-02-12T01:11:21;102871.06;;;5.79;97.52
49835;BME280;35729;52.090;13.162;2023-02-12T01:13:49;102876.31;;;5.81;97.47
49835;BME280;35729;52.090;13.162;2023-02-12T01:16:19;102879.75;;;5.80;97.00
49835;BME280;35729;52.090;13.162;2023-02-12T01:18:49;102883.28;;;5.82;97.55
49835;BME280;35729;52.090;13.162;2023-02-12T01:21:20;102885.91;;;5.82;96.92
49835;BME280;35729;52.090;13.162;2023-02-12T01:23:52;102891.94;;;5.81;96.58
49835;BME280;35729;52.090;13.162;2023-02-12T01:26:21;102884.09;;;5.79;96.94
49835;BME280;35729;52.090;13.162;2023-02-12T01:28:52;102878.00;;;5.79;96.83
49835;BME280;35729;52.090;13.162;2023-02-12T01:31:23;102873.66;;;5.79;97.31
49835;BME280;35729;52.090;13.162;2023-02-12T01:33:53;102871.00;;;5.78;96.62
49835;BME280;35729;52.090;13.162;2023-02-12T01:36:23;102870.94;;;5.76;96.79
49835;BME280;35729;52.090;13.162;2023-02-12T01:38:54;102880.50;;;5.76;96.70
49835;BME280;35729;52.090;13.162;2023-02-12T01:41:25;102869.19;;;5.75;96.52
49835;BME280;35729;52.090;13.162;2023-02-12T01:44:15;102873.47;;;5.73;96.41
49835;BME280;35729;52.090;13.162;2023-02-12T01:46:45;102868.16;;;5.70;96.38
49835;BME280;35729;52.090;13.162;2023-02-12T01:49:18;102870.78;;;5.70;96.19
49835;BME280;35729;52.090;13.162;2023-02-12T01:51:52;102864.56;;;5.66;96.34
49835;BME280;35729;52.090;13.162;2023-02-12T01:54:25;102882.84;;;5.68;96.50
49835;BME280;35729;52.090;13.162;2023-02-12T01:56:54;102878.41;;;5.65;96.12
49835;BME280;35729;52.090;13.162;2023-02-12T01:59:22;102879.25;;;5.64;96.09
49835;BME280;35729;52.090;13.162;2023-02-12T02:01:52;102872.25;;;5.63;96.47
49835;BME280;35729;52.090;13.162;2023-02-12T02:04:23;102871.41;;;5.63;96.27
49835;BME280;35729;52.090;13.162;2023-02-12T02:06:57;102876.56;;;5.61;96.14
49835;BME280;35729;52.090;13.162;2023-02-12T02:09:29;102888.69;;;5.61;96.23
49835;BME280;35729;52.090;13.162;2023-02-12T02:11:58;102888.63;;;5.59;96.00
49835;BME280;35729;52.090;13.162;2023-02-12T02:14:40;102885.16;;;5.59;96.33
49835;BME280;35729;52.090;13.162;2023-02-12T02:17:19;102879.88;;;5.57;96.22
49835;BME280;35729;52.090;13.162;2023-02-12T02:20:12;102882.38;;;5.54;96.25
49835;BME280;35729;52.090;13.162;2023-02-12T02:22:48;102885.03;;;5.55;96.11
49835;BME280;35729;52.090;13.162;2023-02-12T02:25:43;102875.41;;;5.53;96.06
49835;BME280;35729;52.090;13.162;2023-02-12T02:28:33;102875.34;;;5.51;96.63
49835;BME280;35729;52.090;13.162;2023-02-12T02:31:14;102884.13;;;5.53;96.47
49835;BME280;35729;52.090;13.162;2023-02-12T02:33:52;102876.31;;;5.53;96.62
49835;BME280;35729;52.090;13.162;2023-02-12T02:36:26;102877.13;;;5.52;96.42
49835;BME280;35729;52.090;13.162;2023-02-12T02:39:05;102878.84;;;5.52;96.40
49835;BME280;35729;52.090;13.162;2023-02-12T02:41:43;102881.34;;;5.49;96.52
49835;BME280;35729;52.090;13.162;2023-02-12T02:44:17;102886.56;;;5.49;96.45
49835;BME280;35729;52.090;13.162;2023-02-12T02:46:51;102883.00;;;5.47;96.58
49835;BME280;35729;52.090;13.162;2023-02-12T02:49:24;102885.56;;;5.45;96.79
49835;BME280;35729;52.090;13.162;2023-02-12T02:51:56;102889.00;;;5.44;96.79
49835;BME280;35729;52.090;13.162;2023-02-12T02:54:31;102889.78;;;5.42;96.96
49835;BME280;35729;52.090;13.162;2023-02-12T02:57:07;102890.59;;;5.41;96.77
49835;BME280;35729;52.090;13.162;2023-02-12T02:59:47;102900.09;;;5.38;97.02
49835;BME280;35729;52.090;13.162;2023-02-12T03:02:23;102906.19;;;5.39;96.85
49835;BME280;35729;52.090;13.162;2023-02-12T03:04:56;102901.75;;;5.36;97.05
49835;BME280;35729;52.090;13.162;2023-02-12T03:07:28;102908.69;;;5.36;97.05
49835;BME280;35729;52.090;13.162;2023-02-12T03:10:02;102915.63;;;5.37;97.25
49835;BME280;35729;52.090;13.162;2023-02-12T03:12:35;102917.31;;;5.35;97.23
49835;BME280;35729;52.090;13.162;2023-02-12T03:15:09;102914.78;;;5.36;97.55
49835;BME280;35729;52.090;13.162;2023-02-12T03:17:43;102918.25;;;5.37;97.41
49835;BME280;35729;52.090;13.162;2023-02-12T03:20:16;102924.34;;;5.37;97.41
49835;BME280;35729;52.090;13.162;2023-02-12T03:22:48;102929.56;;;5.37;97.44
49835;BME280;35729;52.090;13.162;2023-02-12T03:25:22;102926.97;;;5.37;97.60
49835;BME280;35729;52.090;13.162;2023-02-12T03:27:58;102924.34;;;5.37;97.55
49835;BME280;35729;52.090;13.162;2023-02-12T03:30:36;102926.13;;;5.38;97.54
49835;BME280;35729;52.090;13.162;2023-02-12T03:33:15;102924.34;;;5.37;97.37
49835;BME280;35729;52.090;13.162;2023-02-12T03:35:54;102935.59;;;5.36;97.33
49835;BME280;35729;52.090;13.162;2023-02-12T03:38:32;102935.53;;;5.35;97.54
49835;BME280;35729;52.090;13.162;2023-02-12T03:41:05;102944.19;;;5.34;97.66
49835;BME280;35729;52.090;13.162;2023-02-12T03:43:45;102942.44;;;5.34;97.50
49835;BME280;35729;52.090;13.162;2023-02-12T03:46:19;102949.34;;;5.32;97.55
49835;BME280;35729;52.090;13.162;2023-02-12T03:48:58;102950.22;;;5.33;97.55
49835;BME280;35729;52.090;13.162;2023-02-12T03:51:32;102944.91;;;5.30;97.61
49835;BME280;35729;52.090;13.162;2023-02-12T03:54:03;102942.34;;;5.31;97.76
49835;BME280;35729;52.090;13.162;2023-02-12T03:56:37;102954.50;;;5.31;97.61
49835;BME280;35729;52.090;13.162;2023-02-12T03:59:08;102954.56;;;5.32;97.60
49835;BME280;35729;52.090;13.162;2023-02-12T04:01:37;102951.03;;;5.32;97.79
49835;BME280;35729;52.090;13.162;2023-02-12T04:04:09;102952.81;;;5.33;97.88
49835;BME280;35729;52.090;13.162;2023-02-12T04:06:39;102950.22;;;5.33;97.72
49835;BME280;35729;52.090;13.162;2023-02-12T04:09:09;102953.72;;;5.33;97.86
49835;BME280;35729;52.090;13.162;2023-02-12T04:11:49;102949.38;;;5.34;97.95
49835;BME280;35729;52.090;13.162;2023-02-12T04:14:27;102952.81;;;5.33;97.83
49835;BME280;35729;52.090;13.162;2023-02-12T04:17:03;102961.53;;;5.33;97.75
49835;BME280;35729;52.090;13.162;2023-02-12T04:19:40;102962.34;;;5.32;97.65
49835;BME280;35729;52.090;13.162;2023-02-12T04:22:21;102964.97;;;5.32;97.72
49835;BME280;35729;52.090;13.162;2023-02-12T04:24:58;102966.66;;;5.32;97.79
49835;BME280;35729;52.090;13.162;2023-02-12T04:27:36;102975.38;;;5.32;97.90
49835;BME280;35729;52.090;13.162;2023-02-12T04:30:16;102978.81;;;5.31;97.81
49835;BME280;35729;52.090;13.162;2023-02-12T04:32:47;102985.84;;;5.34;97.84
49835;BME280;35729;52.090;13.162;2023-02-12T04:35:24;102977.06;;;5.32;97.61
49835;BME280;35729;52.090;13.162;2023-02-12T04:37:58;102980.59;;;5.32;97.71
49835;BME280;35729;52.090;13.162;2023-02-12T04:40:29;102984.97;;;5.33;97.73
49835;BME280;35729;52.090;13.162;2023-02-12T04:42:58;102981.44;;;5.33;97.60
49835;BME280;35729;52.090;13.162;2023-02-12T04:45:29;102985.00;;;5.35;97.77
49835;BME280;35729;52.090;13.162;2023-02-12T04:47:57;102981.50;;;5.34;97.76
49835;BME280;35729;52.090;13.162;2023-02-12T04:50:39;102978.97;;;5.36;97.87
49835;BME280;35729;52.090;13.162;2023-02-12T04:53:08;102972.00;;;5.35;97.76
49835;BME280;35729;52.090;13.162;2023-02-12T04:55:37;102980.69;;;5.35;97.83
49835;BME280;35729;52.090;13.162;2023-02-12T04:58:06;102980.69;;;5.35;97.69
49835;BME280;35729;52.090;13.162;2023-02-12T05:00:34;102989.38;;;5.36;97.81
49835;BME280;35729;52.090;13.162;2023-02-12T05:03:03;102991.09;;;5.35;97.67
49835;BME280;35729;52.090;13.162;2023-02-12T05:05:34;102989.25;;;5.33;97.76
49835;BME280;35729;52.090;13.162;2023-02-12T05:08:03;102989.38;;;5.36;97.71
49835;BME280;35729;52.090;13.162;2023-02-12T05:10:31;102986.72;;;5.34;97.58
49835;BME280;35729;52.090;13.162;2023-02-12T05:13:00;102992.78;;;5.33;97.59
49835;BME280;35729;52.090;13.162;2023-02-12T05:15:28;102990.16;;;5.33;97.42
49835;BME280;35729;52.090;13.162;2023-02-12T05:17:57;102992.69;;;5.32;97.63
49835;BME280;35729;52.090;13.162;2023-02-12T05:20:25;102994.47;;;5.33;97.61
49835;BME280;35729;52.090;13.162;2023-02-12T05:22:56;102997.03;;;5.31;97.64
49835;BME280;35729;52.090;13.162;2023-02-12T05:25:25;102991.81;;;5.31;97.45
49835;BME280;35729;52.090;13.162;2023-02-12T05:27:53;102999.63;;;5.31;97.49
49835;BME280;35729;52.090;13.162;2023-02-12T05:30:22;103000.44;;;5.30;97.32
49835;BME280;35729;52.090;13.162;2023-02-12T05:32:51;102994.31;;;5.28;96.94
49835;BME280;35729;52.090;13.162;2023-02-12T05:35:19;102996.84;;;5.27;97.23
49835;BME280;35729;52.090;13.162;2023-02-12T05:38:03;102984.59;;;5.24;97.33
49835;BME280;35729;52.090;13.162;2023-02-12T05:40:32;102990.72;;;5.25;97.32
49835;BME280;35729;52.090;13.162;2023-02-12T05:43:00;102992.41;;;5.24;97.28
49835;BME280;35729;52.090;13.162;2023-02-12T05:45:29;102990.63;;;5.23;97.37
49835;BME280;35729;52.090;13.162;2023-02-12T05:47:59;102989.81;;;5.24;97.46
49835;BME280;35729;52.090;13.162;2023-02-12T05:50:27;102989.81;;;5.24;97.27
49835;BME280;35729;52.090;13.162;2023-02-12T05:52:56;102993.25;;;5.23;97.46
49835;BME280;35729;52.090;13.162;2023-02-12T05:55:29;103000.22;;;5.24;97.28
49835;BME280;35729;52.090;13.162;2023-02-12T05:57:57;102997.56;;;5.22;97.28
49835;BME280;35729;52.090;13.162;2023-02-12T06:00:26;103004.50;;;5.22;97.24
49835;BME280;35729;52.090;13.162;2023-02-12T06:02:54;103011.41;;;5.21;97.36
49835;BME280;35729;52.090;13.162;2023-02-12T06:05:22;103015.78;;;5.22;97.40
49835;BME280;35729;52.090;13.162;2023-02-12T06:07:51;103022.72;;;5.22;97.55
49835;BME280;35729;52.090;13.162;2023-02-12T06:10:19;103019.25;;;5.23;97.35
49835;BME280;35729;52.090;13.162;2023-02-12T06:12:55;103017.53;;;5.22;97.49
49835;BME280;35729;52.090;13.162;2023-02-12T06:15:23;103022.72;;;5.22;97.50
49835;BME280;35729;52.090;13.162;2023-02-12T06:17:52;103027.06;;;5.23;97.46
49835;BME280;35729;52.090;13.162;2023-02-12T06:20:20;103029.53;;;5.18;97.47
49835;BME280;35729;52.090;13.162;2023-02-12T06:23:11;103034.00;;;5.22;97.59
49835;BME280;35729;52.090;13.162;2023-02-12T06:25:39;103042.78;;;5.25;97.76
49835;BME280;35729;52.090;13.162;2023-02-12T06:28:11;103041.91;;;5.26;97.82
49835;BME280;35729;52.090;13.162;2023-02-12T06:30:39;103048.91;;;5.27;97.81
49835;BME280;35729;52.090;13.162;2023-02-12T06:33:08;103049.81;;;5.27;97.80
49835;BME280;35729;52.090;13.162;2023-02-12T06:35:37;103052.47;;;5.29;97.70
49835;BME280;35729;52.090;13.162;2023-02-12T06:38:18;103054.19;;;5.28;97.97
49835;BME280;35729;52.090;13.162;2023-02-12T06:40:46;103064.66;;;5.30;97.95
49835;BME280;35729;52.090;13.162;2023-02-12T06:43:17;103064.69;;;5.31;97.73
49835;BME280;35729;52.090;13.162;2023-02-12T06:45:46;103064.66;;;5.30;97.86
49835;BME280;35729;52.090;13.162;2023-02-12T06:48:14;103071.63;;;5.31;97.92
49835;BME280;35729;52.090;13.162;2023-02-12T06:50:43;103073.34;;;5.30;97.98
49835;BME280;35729;52.090;13.162;2023-02-12T06:53:11;103073.34;;;5.30;97.97
49835;BME280;35729;52.090;13.162;2023-02-12T06:55:40;103084.66;;;5.31;97.87
49835;BME280;35729;52.090;13.162;2023-02-12T06:58:08;103085.53;;;5.31;97.87
49835;BME280;35729;52.090;13.162;2023-02-12T07:00:39;103080.31;;;5.31;97.98
49835;BME280;35729;52.090;13.162;2023-02-12T07:03:07;103076.00;;;5.32;97.95
49835;BME280;35729;52.090;13.162;2023-02-12T07:05:38;103079.50;;;5.32;98.13
49835;BME280;35729;52.090;13.162;2023-02-12T07:08:07;103078.66;;;5.33;98.18
49835;BME280;35729;52.090;13.162;2023-02-12T07:10:36;103082.19;;;5.35;98.29
49835;BME280;35729;52.090;13.162;2023-02-12T07:13:04;103084.81;;;5.35;98.19
49835;BME280;35729;52.090;13.162;2023-02-12T07:15:33;103091.03;;;5.39;98.29
49835;BME280;35729;52.090;13.162;2023-02-12T07:18:08;103095.44;;;5.42;98.46
49835;BME280;35729;52.090;13.162;2023-02-12T07:20:36;103092.84;;;5.42;98.72
49835;BME280;35729;52.090;13.162;2023-02-12T07:23:04;103092.97;;;5.45;98.36
49835;BME280;35729;52.090;13.162;2023-02-12T07:25:33;103100.84;;;5.46;98.56
49835;BME280;35729;52.090;13.162;2023-02-12T07:28:01;103101.75;;;5.48;98.38
49835;BME280;35729;52.090;13.162;2023-02-12T07:30:30;103099.25;;;5.50;98.36
49835;BME280;35729;52.090;13.162;2023-02-12T07:32:58;103101.84;;;5.50;98.40
49835;BME280;35729;52.090;13.162;2023-02-12T07:35:29;103106.19;;;5.51;98.28
49835;BME280;35729;52.090;13.162;2023-02-12T07:37:58;103110.56;;;5.52;98.19
49835;BME280;35729;52.090;13.162;2023-02-12T07:40:26;103116.69;;;5.52;98.35
49835;BME280;35729;52.090;13.162;2023-02-12T07:42:55;103118.47;;;5.53;98.37
49835;BME280;35729;52.090;13.162;2023-02-12T07:45:23;103117.63;;;5.54;98.35
49835;BME280;35729;52.090;13.162;2023-02-12T07:47:52;103122.06;;;5.57;98.31
49835;BME280;35729;52.090;13.162;2023-02-12T07:50:20;103122.13;;;5.59;98.16
49835;BME280;35729;52.090;13.162;2023-02-12T07:52:51;103127.44;;;5.62;98.42
49835;BME280;35729;52.090;13.162;2023-02-12T07:55:20;103121.47;;;5.64;98.13
49835;BME280;35729;52.090;13.162;2023-02-12T07:57:48;103126.81;;;5.67;98.35
49835;BME280;35729;52.090;13.162;2023-02-12T08:00:18;103130.38;;;5.71;98.03
49835;BME280;35729;52.090;13.162;2023-02-12T08:02:50;103127.84;;;5.73;97.94
49835;BME280;35729;52.090;13.162;2023-02-12T08:05:19;103133.09;;;5.74;97.94
49835;BME280;35729;52.090;13.162;2023-02-12T08:07:50;103130.69;;;5.79;98.04
49835;BME280;35729;52.090;13.162;2023-02-12T08:10:19;103136.94;;;5.84;98.25
49835;BME280;35729;52.090;13.162;2023-02-12T08:12:48;103138.81;;;5.88;97.89
49835;BME280;35729;52.090;13.162;2023-02-12T08:15:16;103148.50;;;5.92;98.06
49835;BME280;35729;52.090;13.162;2023-02-12T08:17:45;103146.03;;;5.95;97.87
49835;BME280;35729;52.090;13.162;2023-02-12T08:20:13;103146.25;;;6.01;97.56
49835;BME280;35729;52.090;13.162;2023-02-12T08:22:42;103146.38;;;6.05;97.67
49835;BME280;35729;52.090;13.162;2023-02-12T08:25:13;103139.63;;;6.10;97.54
49835;BME280;35729;52.090;13.162;2023-02-12T08:27:41;103141.53;;;6.15;97.66
49835;BME280;35729;52.090;13.162;2023-02-12T08:30:11;103142.66;;;6.22;97.51
49835;BME280;35729;52.090;13.162;2023-02-12T08:32:39;103146.31;;;6.27;97.27
49835;BME280;35729;52.090;13.162;2023-02-12T08:35:07;103145.56;;;6.31;97.04
49835;BME280;35729;52.090;13.162;2023-02-12T08:37:36;103152.63;;;6.34;96.79
49835;BME280;35729;52.090;13.162;2023-02-12T08:40:05;103154.59;;;6.41;96.92
49835;BME280;35729;52.090;13.162;2023-02-12T08:42:37;103160.81;;;6.45;96.76
49835;BME280;35729;52.090;13.162;2023-02-12T08:45:06;103167.06;;;6.50;96.70
49835;BME280;35729;52.090;13.162;2023-02-12T08:47:35;103170.72;;;6.55;96.39
49835;BME280;35729;52.090;13.162;2023-02-12T08:50:04;103173.50;;;6.60;96.03
49835;BME280;35729;52.090;13.162;2023-02-12T08:52:33;103176.25;;;6.64;96.13
49835;BME280;35729;52.090;13.162;2023-02-12T08:55:02;103179.84;;;6.68;96.04
49835;BME280;35729;52.090;13.162;2023-02-12T08:57:30;103185.19;;;6.71;95.84
49835;BME280;35729;52.090;13.162;2023-02-12T09:00:02;103178.28;;;6.73;95.47
49835;BME280;35729;52.090;13.162;2023-02-12T09:02:31;103181.03;;;6.78;95.50
49835;BME280;35729;52.090;13.162;2023-02-12T09:04:59;103181.13;;;6.81;95.62
49835;BME280;35729;52.090;13.162;2023-02-12T09:07:28;103175.22;;;6.85;95.63
49835;BME280;35729;52.090;13.162;2023-02-12T09:09:56;103182.34;;;6.91;95.49
49835;BME280;35729;52.090;13.162;2023-02-12T09:12:25;103188.53;;;6.94;95.28
49835;BME280;35729;52.090;13.162;2023-02-12T09:14:53;103192.19;;;6.99;95.22
49835;BME280;35729;52.090;13.162;2023-02-12T09:17:24;103185.38;;;7.05;95.22
49835;BME280;35729;52.090;13.162;2023-02-12T09:19:53;103188.13;;;7.08;95.15
49835;BME280;35729;52.090;13.162;2023-02-12T09:22:21;103193.47;;;7.12;94.68
49835;BME280;35729;52.090;13.162;2023-02-12T09:24:50;103197.06;;;7.16;94.75
49835;BME280;35729;52.090;13.162;2023-02-12T09:27:18;103201.53;;;7.20;94.71
49835;BME280;35729;52.090;13.162;2023-02-12T09:29:47;103202.47;;;7.22;94.37
49835;BME280;35729;52.090;13.162;2023-02-12T09:32:15;103204.31;;;7.25;94.72
49835;BME280;35729;52.090;13.162;2023-02-12T09:34:46;103207.88;;;7.27;94.52
49835;BME280;35729;52.090;13.162;2023-02-12T09:37:15;103201.78;;;7.28;94.45
49835;BME280;35729;52.090;13.162;2023-02-12T09:39:43;103212.28;;;7.29;94.46
49835;BME280;35729;52.090;13.162;2023-02-12T09:42:25;103214.06;;;7.30;94.34
49835;BME280;35729;52.090;13.162;2023-02-12T09:45:04;103216.69;;;7.30;94.52
49835;BME280;35729;52.090;13.162;2023-02-12T09:47:42;103218.50;;;7.33;94.79
49835;BME280;35729;52.090;13.162;2023-02-12T09:50:17;103212.41;;;7.34;94.58
49835;BME280;35729;52.090;13.162;2023-02-12T09:52:51;103214.19;;;7.35;94.88
49835;BME280;35729;52.090;13.162;2023-02-12T09:55:25;103215.09;;;7.36;94.88
49835;BME280;35729;52.090;13.162;2023-02-12T09:57:55;103216.91;;;7.38;95.02
49835;BME280;35729;52.090;13.162;2023-02-12T10:00:26;103229.22;;;7.42;94.70
49835;BME280;35729;52.090;13.162;2023-02-12T10:02:57;103225.81;;;7.45;94.82
49835;BME280;35729;52.090;13.162;2023-02-12T10:05:31;103232.03;;;7.48;94.33
49835;BME280;35729;52.090;13.162;2023-02-12T10:08:23;103225.09;;;7.50;94.14
49835;BME280;35729;52.090;13.162;2023-02-12T10:11:00;103218.19;;;7.51;94.32
49835;BME280;35729;52.090;13.162;2023-02-12T10:13:44;103224.47;;;7.58;94.46
49835;BME280;35729;52.090;13.162;2023-02-12T10:16:32;103232.53;;;7.65;94.00
49835;BME280;35729;52.090;13.162;2023-02-12T10:19:17;103227.41;;;7.69;93.38
49835;BME280;35729;52.090;13.162;2023-02-12T10:22:00;103237.94;;;7.72;93.19
49835;BME280;35729;52.090;13.162;2023-02-12T10:24:48;103229.31;;;7.74;93.22
49835;BME280;35729;52.090;13.162;2023-02-12T10:27:34;103231.16;;;7.78;92.77
49835;BME280;35729;52.090;13.162;2023-02-12T10:32:42;103224.19;;;7.77;91.60
49835;BME280;35729;52.090;13.162;2023-02-12T10:35:13;103221.59;;;7.77;91.98
49835;BME280;35729;52.090;13.162;2023-02-12T10:37:50;103229.47;;;7.79;92.11
49835;BME280;35729;52.090;13.162;2023-02-12T10:40:29;103218.19;;;7.80;92.51
49835;BME280;35729;52.090;13.162;2023-02-12T10:42:59;103213.84;;;7.82;92.38
49835;BME280;35729;52.090;13.162;2023-02-12T10:45:29;103221.84;;;7.87;92.17
49835;BME280;35729;52.090;13.162;2023-02-12T10:48:06;103217.56;;;7.89;91.91
49835;BME280;35729;52.090;13.162;2023-02-12T10:50:45;103222.72;;;7.87;91.10
49835;BME280;35729;52.090;13.162;2023-02-12T10:53:20;103216.63;;;7.87;92.31
49835;BME280;35729;52.090;13.162;2023-02-12T10:56:05;103214.00;;;7.87;91.84
49835;BME280;35729;52.090;13.162;2023-02-12T10:58:38;103208.75;;;7.85;92.24
49835;BME280;35729;52.090;13.162;2023-02-12T11:01:15;103213.84;;;7.82;92.98
49835;BME280;35729;52.090;13.162;2023-02-12T11:03:44;103208.63;;;7.82;93.15
49835;BME280;35729;52.090;13.162;2023-02-12T11:06:14;103209.59;;;7.86;93.21
49835;BME280;35729;52.090;13.162;2023-02-12T11:08:46;103207.13;;;7.90;93.16
49835;BME280;35729;52.090;13.162;2023-02-12T11:11:19;103198.56;;;7.96;93.21
49835;BME280;35729;52.090;13.162;2023-02-12T11:13:53;103207.50;;;8.03;92.95
49835;BME280;35729;52.090;13.162;2023-02-12T11:16:30;103206.81;;;8.10;92.92
49835;BME280;35729;52.090;13.162;2023-02-12T11:19:01;103203.47;;;8.14;92.02
49835;BME280;35729;52.090;13.162;2023-02-12T11:21:30;103204.47;;;8.19;92.13
49835;BME280;35729;52.090;13.162;2023-02-12T11:24:20;103199.41;;;8.25;91.19
49835;BME280;35729;52.090;13.162;2023-02-12T11:26:49;103199.41;;;8.25;90.28
49835;BME280;35729;52.090;13.162;2023-02-12T11:29:20;103196.63;;;8.19;90.04
49835;BME280;35729;52.090;13.162;2023-02-12T11:32:00;103201.81;;;8.18;89.53
49835;BME280;35729;52.090;13.162;2023-02-12T11:34:29;103197.25;;;8.10;89.77
49835;BME280;35729;52.090;13.162;2023-02-12T11:36:58;103203.13;;;8.03;90.19
49835;BME280;35729;52.090;13.162;2023-02-12T11:39:32;103200.31;;;7.95;90.90
49835;BME280;35729;52.090;13.162;2023-02-12T11:42:05;103201.88;;;7.89;91.51
49835;BME280;35729;52.090;13.162;2023-02-12T11:44:49;103206.09;;;7.83;91.73
49835;BME280;35729;52.090;13.162;2023-02-12T11:47:20;103201.59;;;7.79;92.26
49835;BME280;35729;52.090;13.162;2023-02-12T11:49:50;103204.09;;;7.75;92.57
49835;BME280;35729;52.090;13.162;2023-02-12T11:52:21;103197.88;;;7.71;93.09
49835;BME280;35729;52.090;13.162;2023-02-12T11:54:55;103193.38;;;7.67;93.32
49835;BME280;35729;52.090;13.162;2023-02-12T11:57:34;103193.25;;;7.62;93.20
49835;BME280;35729;52.090;13.162;2023-02-12T12:00:05;103198.53;;;7.64;93.84
49835;BME280;35729;52.090;13.162;2023-02-12T12:02:42;103199.50;;;7.68;93.69
49835;BME280;35729;52.090;13.162;2023-02-12T12:05:14;103186.66;;;7.75;93.91
49835;BME280;35729;52.090;13.162;2023-02-12T12:07:48;103192.13;;;7.83;93.52
49835;BME280;35729;52.090;13.162;2023-02-12T12:10:30;103184.44;;;7.89;93.52
49835;BME280;35729;52.090;13.162;2023-02-12T12:13:03;103184.63;;;7.95;93.02
49835;BME280;35729;52.090;13.162;2023-02-12T12:15:36;103180.38;;;7.99;92.36
49835;BME280;35729;52.090;13.162;2023-02-12T12:18:24;103172.59;;;8.02;91.91
49835;BME280;35729;52.090;13.162;2023-02-12T12:21:10;103176.13;;;8.03;90.70
49835;BME280;35729;52.090;13.162;2023-02-12T12:23:43;103170.91;;;8.03;90.36
49835;BME280;35729;52.090;13.162;2023-02-12T12:26:20;103172.56;;;8.01;90.07
49835;BME280;35729;52.090;13.162;2023-02-12T12:28:53;103179.47;;;7.98;90.85
49835;BME280;35729;52.090;13.162;2023-02-12T12:31:28;103180.41;;;8.01;90.92
49835;BME280;35729;52.090;13.162;2023-02-12T12:34:04;103174.25;;;7.98;90.04
49835;BME280;35729;52.090;13.162;2023-02-12T12:39:35;103175.84;;;7.93;90.29
49835;BME280;35729;52.090;13.162;2023-02-12T12:42:35;103167.97;;;7.92;89.17
49835;BME280;35729;52.090;13.162;2023-02-12T12:45:18;103168.00;;;7.93;90.67
49835;BME280;35729;52.090;13.162;2023-02-12T12:48:00;103155.88;;;7.95;90.20
49835;BME280;35729;52.090;13.162;2023-02-12T12:50:48;103163.97;;;8.05;89.92
49835;BME280;35729;52.090;13.162;2023-02-12T12:53:31;103153.69;;;8.11;88.72
49835;BME280;35729;52.090;13.162;2023-02-12T12:56:12;103152.06;;;8.16;89.04
49835;BME280;35729;52.090;13.162;2023-02-12T12:59:04;103153.94;;;8.20;88.92
49835;BME280;35729;52.090;13.162;2023-02-12T13:01:52;103158.44;;;8.26;88.94
49835;BME280;35729;52.090;13.162;2023-02-12T13:07:28;103154.19;;;8.29;84.53
49835;BME280;35729;52.090;13.162;2023-02-12T13:10:09;103145.59;;;8.35;86.45
49835;BME280;35729;52.090;13.162;2023-02-12T13:12:54;103140.53;;;8.41;86.25
49835;BME280;35729;52.090;13.162;2023-02-12T13:15:34;103145.91;;;8.46;85.49
49835;BME280;35729;52.090;13.162;2023-02-12T13:18:13;103144.25;;;8.50;85.35
49835;BME280;35729;52.090;13.162;2023-02-12T13:20:50;103153.88;;;8.51;84.13
49835;BME280;35729;52.090;13.162;2023-02-12T13:23:31;103150.50;;;8.55;85.34
49835;BME280;35729;52.090;13.162;2023-02-12T13:26:11;103150.53;;;8.56;84.15
49835;BME280;35729;52.090;13.162;2023-02-12T13:28:43;103160.16;;;8.57;84.73